IGO301 VABB-OMDB
Flight info
| Callsign | IGO301 |
|---|---|
| Flight time | N/A |
| Altitude | 34000 |
| Route | RAXET2AXSAKUN/27 SAKUN V2 SUGID N571 VUSET A454 PASOV B540 KUPMA/N0402F240 B540 MIVEK P574 IMPED IMPE3C OMDB/30R |
| Aircraft | A321/M-SDFGHIRWY/C |
Departure
| Time | N/A |
|---|---|
| Airport | Chhatrapati Shivaji Maharaj International Airport (VABB) |
Arrival
| Time | 2026-05-03 20:19 |
|---|---|
| Airport | Dubai International Airport (OMDB) |
| Time | Latitude | Longitude | Altitude | Speed | Heading |
|---|---|---|---|---|---|
| 2026-05-03 20:15 | 25.16497 | 55.52318 | 2602 ft | 150 kts | 300° |
| 2026-05-03 20:15 | 25.17027 | 55.51362 | 2396 ft | 141 kts | 300° |
| 2026-05-03 20:15 | 25.17524 | 55.50466 | 2235 ft | 135 kts | 300° |
| 2026-05-03 20:15 | 25.18010 | 55.49587 | 2085 ft | 132 kts | 300° |
| 2026-05-03 20:16 | 25.18486 | 55.48727 | 1913 ft | 131 kts | 300° |
| 2026-05-03 20:16 | 25.18966 | 55.47859 | 1745 ft | 133 kts | 300° |
| 2026-05-03 20:16 | 25.19454 | 55.46978 | 1573 ft | 135 kts | 300° |
| 2026-05-03 20:16 | 25.19944 | 55.46093 | 1396 ft | 136 kts | 300° |
| 2026-05-03 20:17 | 25.20439 | 55.45199 | 1225 ft | 138 kts | 300° |
| 2026-05-03 20:17 | 25.20936 | 55.44300 | 1051 ft | 139 kts | 300° |
| 2026-05-03 20:17 | 25.21443 | 55.43384 | 888 ft | 141 kts | 300° |
| 2026-05-03 20:17 | 25.21959 | 55.42452 | 709 ft | 144 kts | 300° |
| 2026-05-03 20:18 | 25.22488 | 55.41496 | 528 ft | 148 kts | 300° |
| 2026-05-03 20:18 | 25.23026 | 55.40523 | 327 ft | 149 kts | 301° |
| 2026-05-03 20:18 | 25.23563 | 55.39552 | 124 ft | 151 kts | 300° |
| 2026-05-03 20:18 | 25.24092 | 55.38581 | 32 ft | 137 kts | 301° |
| 2026-05-03 20:19 | 25.24526 | 55.37804 | 21 ft | 96 kts | 302° |
| 2026-05-03 20:19 | 25.24818 | 55.37279 | 17 ft | 57 kts | 302° |
| 2026-05-03 20:19 | 25.24906 | 55.37076 | 15 ft | 11 kts | 259° |
| 2026-05-03 20:19 | 25.24858 | 55.37011 | 15 ft | 12 kts | 212° |
| 2026-05-03 20:20 | 25.24763 | 55.37003 | 27 ft | 17 kts | 141° |
| 2026-05-03 20:20 | 25.24708 | 55.37106 | 29 ft | 15 kts | 135° |
| 2026-05-03 20:20 | 25.24674 | 55.37146 | 32 ft | 0 kts | 128° |
| 2026-05-03 20:22 | 25.24625 | 55.37233 | 32 ft | 19 kts | 143° |
| 2026-05-03 20:22 | 25.24554 | 55.37279 | 35 ft | 20 kts | 152° |
| 2026-05-03 20:23 | 25.24477 | 55.37346 | 37 ft | 20 kts | 127° |
| 2026-05-03 20:24 | 25.24449 | 55.37390 | 38 ft | 1 kts | 123° |
| 2026-05-03 20:24 | 25.24447 | 55.37395 | 38 ft | 0 kts | 123° |
| 2026-05-03 20:26 | 25.24413 | 55.37454 | 37 ft | 0 kts | 121° |
| 2026-05-03 20:27 | 25.24410 | 55.37460 | 39 ft | 2 kts | 121° |
| 2026-05-03 20:27 | 25.24389 | 55.37498 | 39 ft | 7 kts | 121° |